KSUA/SUA METAR and TAF weather

Enter ICAO airport designator
Station Type Date Time Source
KSUA METAR 2019/02/22 23:50 UTC NOAA

KSUA 222350Z 14007KT 7SM SCT017 25/22 A3016


Station Type Date Time Source
KSUA Decoded METAR 2019/02/22 23:50 UTC NOAA

Stuart, Witham Field Airport, FL, United States (KSUA) 27-10-54N 080-13-16W
Feb 22, 2019 - 06:50 PM EST / 2019.02.22 2350 UTC
Wind: from the SE (140 degrees) at 8 MPH (7 KT):0
Visibility: 7 mile(s):0
Sky conditions: partly cloudy
Temperature: 77 F (25 C)
Dew Point: 71 F (22 C)
Relative Humidity: 83%
Pressure (altimeter): 30.16 in. Hg (1021 hPa)
ob: KSUA 222350Z 14007KT 7SM SCT017 25/22 A3016
cycle: 0

Station Type Date Time Source
KSUA TAF 2019/02/22 18:33 UTC NOAA

TAF KSUA 221731Z 2218/2318 12011KT P6SM SCT030
FM230200 13005KT P6SM SCT080
FM230700 15005KT P6SM VCSH SCT030 BKN060
TEMPO 2308/2312 5SM SHRA BKN025 OVC050
FM231500 13011KT P6SM SCT020 BKN050


Example: see airport list